createdAt,value
2022-12-05T00:04:23.999Z,3.78
2022-12-05T00:14:28.309Z,3.69
2022-12-05T00:24:31.358Z,3.83
2022-12-05T00:34:36.193Z,3.92
2022-12-05T00:44:39.720Z,3.88
2022-12-05T00:54:44.614Z,3.91
2022-12-05T01:04:47.768Z,3.86
2022-12-05T01:14:52.158Z,3.73
2022-12-05T01:24:55.205Z,3.62
2022-12-05T01:34:59.726Z,3.67
2022-12-05T01:45:09.288Z,3.44
2022-12-05T01:55:17.928Z,3.33
2022-12-05T02:05:24.287Z,3.29
2022-12-05T02:15:43.067Z,3.33
2022-12-05T02:26:16.783Z,3.30
2022-12-05T02:36:27.009Z,3.22
2022-12-05T02:46:33.484Z,3.22
2022-12-05T02:56:39.500Z,3.19
2022-12-05T03:06:46.811Z,3.08
2022-12-05T03:16:54.113Z,3.16
2022-12-05T03:27:08.497Z,3.11
2022-12-05T03:37:19.473Z,3.21
2022-12-05T03:47:27.870Z,2.96
2022-12-05T03:57:36.884Z,3.00
2022-12-05T04:07:41.844Z,2.93
2022-12-05T04:17:53.790Z,2.90
2022-12-05T04:28:06.911Z,2.95
2022-12-05T04:38:14.929Z,2.93
2022-12-05T04:48:19.358Z,2.84
2022-12-05T04:58:25.559Z,2.94
2022-12-05T05:08:30.370Z,2.93
2022-12-05T05:18:34.960Z,2.87
2022-12-05T05:28:38.103Z,2.96
2022-12-05T05:38:44.103Z,2.97
2022-12-05T05:48:47.506Z,3.07
2022-12-05T05:58:56.765Z,3.22
2022-12-05T06:08:59.888Z,3.30
2022-12-05T06:19:04.382Z,3.39
2022-12-05T06:29:07.327Z,3.26
2022-12-05T06:39:11.419Z,3.14
2022-12-05T06:49:14.517Z,3.10
2022-12-05T06:59:18.906Z,3.34
2022-12-05T07:09:44.840Z,3.25
2022-12-05T07:19:50.526Z,3.19
2022-12-05T07:29:54.051Z,3.27
2022-12-05T07:39:58.803Z,3.24
2022-12-05T07:50:02.078Z,3.25
2022-12-05T08:00:08.448Z,3.21
2022-12-05T08:10:15.948Z,3.28
2022-12-05T08:20:20.295Z,3.25
2022-12-05T08:30:23.079Z,3.16
2022-12-05T08:40:27.491Z,3.13
2022-12-05T08:50:30.537Z,3.33
2022-12-05T09:00:34.990Z,3.36
2022-12-05T09:10:38.960Z,3.33
2022-12-05T09:20:43.281Z,3.38
2022-12-05T09:30:46.206Z,3.32
2022-12-05T09:40:58.848Z,3.37
2022-12-05T09:51:04.412Z,3.48
2022-12-05T10:01:22.744Z,3.44
2022-12-05T10:11:35.567Z,3.57
2022-12-05T10:21:48.658Z,3.63
2022-12-05T10:31:58.887Z,3.54
2022-12-05T10:42:04.057Z,3.55
2022-12-05T10:52:07.546Z,3.66
2022-12-05T11:02:23.272Z,3.73
2022-12-05T11:12:30.180Z,3.62
2022-12-05T11:22:36.620Z,3.59
2022-12-05T11:32:40.806Z,3.71
2022-12-05T11:43:03.019Z,3.77
2022-12-05T11:53:22.547Z,3.74
2022-12-05T12:03:51.647Z,4.45
2022-12-05T12:14:02.529Z,3.89
2022-12-05T12:24:18.763Z,3.85
2022-12-05T12:34:46.008Z,3.81
2022-12-05T12:45:18.698Z,3.80
2022-12-05T12:55:26.065Z,3.83
2022-12-05T13:05:35.972Z,3.96
2022-12-05T13:15:41.984Z,3.79
2022-12-05T13:25:48.572Z,3.79
2022-12-05T13:36:17.038Z,3.89
2022-12-05T13:46:28.091Z,4.04
2022-12-05T13:56:50.582Z,3.90
2022-12-05T14:06:59.598Z,3.63
2022-12-05T14:17:04.489Z,3.76
2022-12-05T14:27:17.965Z,3.50
2022-12-05T14:37:29.097Z,3.74
2022-12-05T14:47:35.542Z,3.69
2022-12-05T14:57:48.426Z,3.80
2022-12-05T15:07:55.112Z,3.63
2022-12-05T15:18:05.111Z,3.62
2022-12-05T15:28:20.699Z,3.98
2022-12-05T15:38:28.550Z,3.76
2022-12-05T15:48:32.786Z,3.54
2022-12-05T15:58:40.916Z,3.78
2022-12-05T16:08:49.511Z,3.85
2022-12-05T16:18:56.466Z,3.58
2022-12-05T16:29:02.246Z,3.71
2022-12-05T16:39:19.162Z,3.59
2022-12-05T16:49:40.057Z,3.85
2022-12-05T16:59:49.685Z,3.86
2022-12-05T17:09:54.271Z,3.68
2022-12-05T17:19:57.271Z,3.48
2022-12-05T17:30:01.698Z,3.35
2022-12-05T18:04:10.804Z,3.60
2022-12-05T18:14:14.103Z,3.61
2022-12-05T18:24:18.538Z,3.47
2022-12-05T18:34:21.534Z,3.53
2022-12-05T18:44:25.593Z,3.34
2022-12-05T18:54:28.561Z,3.41
2022-12-05T19:04:32.851Z,3.53
2022-12-05T19:14:35.799Z,3.53
2022-12-05T19:24:40.444Z,3.55
2022-12-05T19:34:43.911Z,3.37
2022-12-05T19:44:49.699Z,3.59
2022-12-05T19:54:52.833Z,3.22
2022-12-05T20:04:56.925Z,3.44
2022-12-05T20:14:59.942Z,3.48
2022-12-05T20:25:04.611Z,3.69
2022-12-05T20:35:07.967Z,3.29
2022-12-05T20:45:12.796Z,3.49
2022-12-05T20:55:16.081Z,3.30
2022-12-05T21:05:20.493Z,3.43
2022-12-05T21:15:23.351Z,3.31
2022-12-05T21:25:27.826Z,3.46
2022-12-05T21:35:30.896Z,3.41
2022-12-05T21:45:43.359Z,3.46
2022-12-05T21:55:48.150Z,3.54
2022-12-05T22:06:00.023Z,3.48
2022-12-05T22:16:04.673Z,3.57
2022-12-05T22:26:11.102Z,3.64
2022-12-05T22:36:16.523Z,3.59
2022-12-05T22:46:22.521Z,3.70
2022-12-05T22:56:27.559Z,3.70
2022-12-05T23:06:33.486Z,3.68
2022-12-05T23:16:36.824Z,3.67
2022-12-05T23:26:43.312Z,3.61
2022-12-05T23:36:46.324Z,3.79
2022-12-05T23:46:50.967Z,3.78
2022-12-05T23:56:55.113Z,3.72
